createdAt,value
2022-12-19T00:00:48.011Z,35.20
2022-12-19T00:03:30.026Z,34.20
2022-12-19T00:06:03.820Z,39.70
2022-12-19T00:08:35.397Z,41.70
2022-12-19T00:11:05.780Z,37.40
2022-12-19T00:13:40.968Z,39.70
2022-12-19T00:16:13.302Z,38.60
2022-12-19T00:18:45.664Z,39.60
2022-12-19T00:21:16.800Z,40.00
2022-12-19T00:23:48.567Z,39.60
2022-12-19T00:26:20.655Z,40.50
2022-12-19T00:28:53.164Z,41.10
2022-12-19T00:31:24.125Z,41.80
2022-12-19T00:33:55.418Z,42.00
2022-12-19T00:36:27.757Z,39.70
2022-12-19T00:38:59.854Z,43.80
2022-12-19T00:41:31.626Z,41.70
2022-12-19T00:44:03.396Z,42.00
2022-12-19T00:46:35.491Z,42.10
2022-12-19T00:49:06.876Z,39.70
2022-12-19T00:51:37.837Z,40.60
2022-12-19T00:54:12.064Z,40.30
2022-12-19T00:56:43.469Z,40.90
2022-12-19T00:59:14.393Z,42.40
2022-12-19T01:01:47.901Z,42.20
2022-12-19T01:04:28.222Z,38.70
2022-12-19T01:07:02.739Z,42.60
2022-12-19T01:09:37.470Z,42.40
2022-12-19T01:12:26.354Z,41.30
2022-12-19T01:15:01.694Z,40.90
2022-12-19T01:17:42.344Z,43.20
2022-12-19T01:20:17.046Z,40.60
2022-12-19T01:22:49.967Z,42.20
2022-12-19T01:25:20.908Z,40.40
2022-12-19T01:27:51.669Z,44.00
2022-12-19T01:30:22.829Z,40.90
2022-12-19T01:32:53.951Z,39.40
2022-12-19T01:35:25.084Z,40.40
2022-12-19T01:38:08.132Z,40.70
2022-12-19T01:40:39.869Z,43.90
2022-12-19T01:43:14.779Z,40.00
2022-12-19T01:45:46.466Z,46.00
2022-12-19T01:48:19.425Z,42.60
2022-12-19T01:51:01.260Z,45.60
2022-12-19T01:53:48.368Z,45.00
2022-12-19T01:56:23.989Z,43.70
2022-12-19T01:59:06.404Z,37.00
2022-12-19T02:01:50.963Z,41.50
2022-12-19T02:04:32.025Z,41.60
2022-12-19T02:07:10.917Z,42.50
2022-12-19T02:09:50.547Z,38.60
2022-12-19T02:12:29.848Z,43.10
2022-12-19T02:15:03.057Z,43.00
2022-12-19T02:17:39.322Z,40.90
2022-12-19T02:20:23.344Z,36.40
2022-12-19T02:23:03.571Z,39.50
2022-12-19T02:25:44.711Z,34.50
2022-12-19T02:28:30.078Z,39.80
2022-12-19T02:31:13.793Z,45.60
2022-12-19T02:33:53.077Z,37.90
2022-12-19T02:36:32.443Z,42.70
2022-12-19T02:39:12.121Z,40.20
2022-12-19T02:41:45.998Z,44.10
2022-12-19T02:44:23.566Z,43.20
2022-12-19T02:46:54.305Z,46.80
2022-12-19T02:49:30.499Z,37.70
2022-12-19T02:52:11.184Z,35.40
2022-12-19T02:54:42.356Z,45.10
2022-12-19T02:57:19.774Z,36.20
2022-12-19T02:59:57.561Z,38.50
2022-12-19T03:02:34.123Z,41.20
2022-12-19T03:05:09.860Z,41.20
2022-12-19T03:07:43.807Z,38.60
2022-12-19T03:10:20.076Z,35.10
2022-12-19T03:12:54.883Z,43.40
2022-12-19T03:15:27.899Z,45.00
2022-12-19T03:18:00.088Z,39.60
2022-12-19T03:20:37.114Z,36.80
2022-12-19T03:23:07.759Z,42.70
2022-12-19T03:25:39.659Z,33.30
2022-12-19T03:28:13.031Z,38.00
2022-12-19T03:30:44.618Z,42.30
2022-12-19T03:33:15.100Z,40.90
2022-12-19T03:35:47.691Z,44.20
2022-12-19T03:38:19.532Z,39.90
2022-12-19T03:40:51.300Z,41.80
2022-12-19T03:43:23.254Z,33.80
2022-12-19T03:45:56.608Z,38.10
2022-12-19T03:48:30.833Z,37.90
2022-12-19T03:51:07.217Z,37.90
2022-12-19T03:53:45.982Z,35.90
2022-12-19T03:56:19.796Z,29.50
2022-12-19T03:58:53.361Z,29.70
2022-12-19T04:03:53.652Z,38.10
2022-12-19T04:06:24.541Z,41.40
2022-12-19T04:08:55.383Z,41.10
2022-12-19T04:11:27.750Z,38.90
2022-12-19T04:14:00.278Z,41.70
2022-12-19T04:16:33.914Z,38.10
2022-12-19T04:19:06.963Z,40.70
2022-12-19T04:21:41.168Z,39.30
2022-12-19T04:24:13.495Z,36.50
2022-12-19T04:26:46.543Z,39.60
2022-12-19T04:29:17.732Z,37.60
2022-12-19T04:31:49.412Z,36.90
2022-12-19T04:34:20.966Z,39.50
2022-12-19T04:36:52.425Z,33.20
2022-12-19T04:39:23.417Z,36.10
2022-12-19T04:41:55.802Z,33.40
2022-12-19T04:44:26.587Z,33.00
2022-12-19T04:46:57.133Z,37.00
2022-12-19T04:49:27.707Z,33.50
2022-12-19T04:51:58.629Z,32.20
2022-12-19T04:54:29.759Z,31.50
2022-12-19T04:57:00.741Z,31.30
2022-12-19T04:59:31.838Z,30.80
2022-12-19T05:02:02.627Z,34.90
2022-12-19T05:04:33.322Z,32.60
2022-12-19T05:07:03.850Z,35.70
2022-12-19T05:09:34.711Z,30.90
2022-12-19T05:12:05.543Z,35.10
2022-12-19T05:14:36.402Z,39.20
2022-12-19T05:17:07.172Z,33.70
2022-12-19T05:19:37.912Z,35.40
2022-12-19T05:22:08.581Z,31.70
2022-12-19T05:24:39.278Z,33.10
2022-12-19T05:27:09.802Z,32.60
2022-12-19T05:29:40.592Z,30.70
2022-12-19T05:32:11.204Z,31.30
2022-12-19T05:34:42.011Z,30.40
2022-12-19T05:37:13.452Z,30.00
2022-12-19T05:39:44.152Z,33.30
2022-12-19T05:42:14.746Z,28.50
2022-12-19T05:44:45.557Z,28.70
2022-12-19T05:47:16.273Z,27.20
2022-12-19T05:49:47.008Z,27.00
2022-12-19T05:52:18.107Z,32.50
2022-12-19T05:54:49.095Z,33.10
2022-12-19T05:57:19.535Z,31.50
2022-12-19T05:59:50.353Z,35.40
2022-12-19T06:02:21.880Z,30.40
2022-12-19T06:04:52.635Z,37.00
2022-12-19T06:07:23.424Z,37.90
2022-12-19T06:09:54.155Z,35.40
2022-12-19T06:12:24.775Z,37.50
2022-12-19T06:14:55.654Z,35.50
2022-12-19T06:17:26.308Z,42.50
2022-12-19T06:19:57.156Z,40.60
2022-12-19T06:22:27.694Z,39.20
2022-12-19T06:24:58.298Z,43.90
2022-12-19T06:27:28.768Z,39.50
2022-12-19T06:29:59.346Z,39.90
2022-12-19T06:32:34.770Z,41.60
2022-12-19T06:35:09.301Z,43.10
2022-12-19T06:37:40.051Z,41.40
2022-12-19T06:40:33.113Z,40.20
2022-12-19T06:43:03.681Z,40.00
2022-12-19T06:45:34.305Z,40.90
2022-12-19T06:48:05.465Z,32.10
2022-12-19T06:50:37.071Z,43.00
2022-12-19T06:53:08.820Z,38.50
2022-12-19T06:55:39.560Z,39.30
2022-12-19T06:58:10.188Z,43.90
2022-12-19T07:00:40.848Z,36.70
2022-12-19T07:03:13.128Z,34.00
2022-12-19T07:05:43.924Z,32.50
2022-12-19T07:08:14.761Z,40.70
2022-12-19T07:10:45.524Z,39.40
2022-12-19T07:13:16.452Z,43.10
2022-12-19T07:15:46.963Z,35.10
2022-12-19T07:18:18.448Z,43.50
2022-12-19T07:20:49.272Z,40.80
2022-12-19T07:23:21.785Z,38.30
2022-12-19T07:25:52.358Z,42.00
2022-12-19T07:28:23.286Z,38.30
2022-12-19T07:30:53.850Z,39.40
2022-12-19T07:33:24.612Z,34.50
2022-12-19T07:35:55.168Z,41.20
2022-12-19T07:38:26.010Z,37.70
2022-12-19T07:40:56.647Z,44.70
2022-12-19T07:43:27.755Z,38.60
2022-12-19T07:45:58.554Z,37.40
2022-12-19T07:48:30.280Z,32.70
2022-12-19T07:51:00.715Z,36.50
2022-12-19T07:53:34.547Z,37.80
2022-12-19T07:56:05.238Z,39.10
2022-12-19T07:58:36.077Z,35.00
2022-12-19T08:01:07.449Z,37.20
2022-12-19T08:03:39.126Z,36.30
2022-12-19T08:06:09.917Z,35.40
2022-12-19T08:08:40.778Z,37.90
2022-12-19T08:11:12.286Z,34.00
2022-12-19T08:13:46.378Z,36.00
2022-12-19T08:16:18.300Z,42.20
2022-12-19T08:18:49.302Z,40.70
2022-12-19T08:21:20.171Z,38.80
2022-12-19T08:23:50.772Z,41.00
2022-12-19T08:26:25.483Z,39.90
2022-12-19T08:28:57.459Z,45.30
2022-12-19T08:31:29.701Z,39.70
2022-12-19T08:34:00.346Z,34.30
2022-12-19T08:36:30.890Z,39.50
2022-12-19T08:39:02.178Z,34.40
2022-12-19T08:41:33.077Z,38.30
2022-12-19T08:44:03.879Z,42.60
2022-12-19T08:46:34.670Z,45.20
2022-12-19T08:49:05.525Z,40.30
2022-12-19T08:51:36.120Z,41.20
2022-12-19T08:54:07.794Z,36.90
2022-12-19T08:56:46.826Z,41.60
2022-12-19T08:59:22.869Z,38.70
2022-12-19T09:02:02.458Z,39.80
2022-12-19T09:05:07.365Z,39.10
2022-12-19T09:07:24.027Z,41.00
2022-12-19T09:09:54.972Z,40.00
2022-12-19T09:12:25.770Z,41.80
2022-12-19T09:14:56.433Z,46.50
2022-12-19T09:17:27.028Z,38.00
2022-12-19T09:19:57.894Z,42.50
2022-12-19T09:22:29.402Z,42.40
2022-12-19T09:25:00.490Z,44.20
2022-12-19T09:27:31.064Z,43.50
2022-12-19T09:30:02.338Z,40.00
2022-12-19T09:32:33.296Z,39.60
2022-12-19T09:35:04.289Z,41.20
2022-12-19T09:37:34.935Z,42.80
2022-12-19T09:40:06.556Z,42.90
2022-12-19T09:42:52.370Z,41.70
2022-12-19T09:45:40.823Z,42.30
2022-12-19T09:48:23.593Z,38.80
2022-12-19T09:51:09.975Z,48.40
2022-12-19T09:53:46.007Z,44.90
2022-12-19T09:56:27.649Z,46.30
2022-12-19T09:59:00.156Z,43.60
2022-12-19T10:01:34.238Z,42.80
2022-12-19T10:04:07.004Z,49.10
2022-12-19T10:07:06.921Z,42.00
2022-12-19T10:11:28.718Z,46.20
2022-12-19T10:12:43.778Z,42.00
2022-12-19T10:15:23.956Z,46.40
2022-12-19T10:18:06.591Z,47.10
2022-12-19T10:20:39.569Z,44.90
2022-12-19T10:23:17.688Z,47.10
2022-12-19T10:25:53.733Z,42.20
2022-12-19T10:28:33.116Z,41.00
2022-12-19T10:31:17.222Z,39.30
2022-12-19T10:33:56.272Z,44.30
2022-12-19T10:36:55.804Z,39.50
2022-12-19T10:39:24.046Z,40.40
2022-12-19T10:41:57.421Z,44.60
2022-12-19T10:44:29.803Z,43.40
2022-12-19T10:47:00.639Z,43.20
2022-12-19T10:49:35.145Z,47.50
2022-12-19T10:52:08.080Z,45.30
2022-12-19T10:54:44.240Z,44.80
2022-12-19T10:57:26.475Z,45.90
2022-12-19T10:59:58.122Z,43.50
2022-12-19T11:02:35.831Z,47.30
2022-12-19T11:05:08.352Z,42.00
2022-12-19T11:07:39.147Z,41.30
2022-12-19T11:12:38.585Z,41.40
2022-12-19T11:17:45.676Z,43.80
2022-12-19T11:22:20.656Z,40.70
2022-12-19T11:29:25.025Z,43.90
2022-12-19T11:29:32.817Z,42.80
2022-12-19T11:30:25.575Z,40.00
2022-12-19T11:30:49.021Z,41.00
2022-12-19T11:32:20.569Z,39.80
2022-12-19T11:33:55.290Z,40.70
2022-12-19T11:36:31.749Z,43.30
2022-12-19T11:39:04.186Z,38.70
2022-12-19T11:41:38.413Z,41.50
2022-12-19T11:44:13.519Z,39.40
2022-12-19T11:46:46.307Z,43.50
2022-12-19T11:49:25.090Z,42.80
2022-12-19T11:51:57.583Z,39.60
2022-12-19T11:54:30.581Z,43.40
2022-12-19T11:57:01.842Z,45.60
2022-12-19T11:59:33.554Z,41.80
2022-12-19T12:02:10.637Z,45.10
2022-12-19T12:04:52.977Z,43.40
2022-12-19T12:07:31.897Z,42.70
2022-12-19T12:14:01.902Z,41.20
2022-12-19T12:20:54.211Z,43.20
2022-12-19T12:29:05.463Z,41.00
2022-12-19T12:31:04.117Z,42.60
2022-12-19T12:31:23.724Z,42.50
2022-12-19T12:31:49.076Z,44.80
2022-12-19T12:31:52.920Z,44.20
2022-12-19T12:31:55.329Z,42.60
2022-12-19T12:35:34.428Z,43.50
2022-12-19T12:39:26.681Z,45.60
2022-12-19T12:42:05.001Z,45.10
2022-12-19T12:44:44.837Z,43.60
2022-12-19T12:47:19.236Z,42.80
2022-12-19T12:49:53.118Z,47.50
2022-12-19T12:52:28.178Z,46.60
2022-12-19T12:54:59.416Z,51.40
2022-12-19T12:57:37.656Z,46.40
2022-12-19T13:00:23.063Z,49.10
2022-12-19T13:02:55.812Z,49.90
2022-12-19T13:05:36.062Z,46.90
2022-12-19T13:08:19.981Z,53.10
2022-12-19T13:10:56.566Z,51.20
2022-12-19T13:13:40.489Z,50.60
2022-12-19T13:16:24.714Z,48.60
2022-12-19T13:19:04.604Z,53.30
2022-12-19T13:21:50.185Z,52.80
2022-12-19T13:24:23.385Z,48.80
2022-12-19T13:29:30.365Z,49.20
2022-12-19T13:32:11.264Z,47.70
2022-12-19T13:34:53.835Z,51.20
2022-12-19T13:39:50.749Z,47.60
2022-12-19T13:40:33.940Z,52.80
2022-12-19T13:43:31.068Z,49.20
2022-12-19T13:46:02.600Z,51.60
2022-12-19T13:48:34.878Z,54.40
2022-12-19T13:51:08.119Z,52.30
2022-12-19T13:56:12.945Z,50.90
2022-12-19T13:58:48.564Z,49.70
2022-12-19T14:01:23.047Z,49.30
2022-12-19T14:03:55.179Z,49.80
2022-12-19T14:06:27.040Z,46.50
2022-12-19T14:11:25.222Z,50.50
2022-12-19T14:13:44.399Z,48.40
2022-12-19T14:15:13.164Z,50.10
2022-12-19T14:17:48.942Z,48.20
2022-12-19T14:22:04.278Z,48.00
2022-12-19T14:23:16.003Z,50.00
2022-12-19T14:28:15.564Z,49.90
2022-12-19T14:28:54.920Z,46.20
2022-12-19T14:31:26.650Z,45.20
2022-12-19T14:34:19.059Z,45.20
2022-12-19T14:36:51.364Z,45.00
2022-12-19T14:39:29.347Z,44.00
2022-12-19T14:42:31.733Z,46.60
2022-12-19T14:51:51.680Z,42.30
2022-12-19T14:52:36.099Z,44.50
2022-12-19T14:54:26.802Z,49.60
2022-12-19T14:56:09.469Z,39.20
2022-12-19T14:57:50.628Z,42.60
2022-12-19T15:01:07.448Z,46.60
2022-12-19T15:03:18.558Z,47.00
2022-12-19T15:05:49.774Z,43.50
2022-12-19T15:08:28.108Z,48.00
2022-12-19T15:11:58.241Z,48.80
2022-12-19T15:14:56.644Z,45.70
2022-12-19T15:17:29.913Z,49.30
2022-12-19T15:20:00.863Z,44.20
2022-12-19T15:22:31.940Z,48.60
2022-12-19T15:25:02.643Z,49.60
2022-12-19T15:27:33.817Z,48.90
2022-12-19T15:30:04.485Z,46.60
2022-12-19T15:32:35.545Z,47.40
2022-12-19T15:35:09.683Z,48.90
2022-12-19T15:37:40.901Z,50.40
2022-12-19T15:40:15.441Z,46.00
2022-12-19T15:42:48.757Z,46.60
2022-12-19T15:45:20.190Z,47.20
2022-12-19T15:47:51.360Z,47.50
2022-12-19T15:50:22.871Z,46.70
2022-12-19T15:52:55.607Z,45.10
2022-12-19T15:55:28.447Z,49.30
2022-12-19T15:58:01.057Z,46.00
2022-12-19T16:00:33.999Z,48.20
2022-12-19T16:05:55.382Z,46.30
2022-12-19T16:08:26.682Z,47.00
2022-12-19T16:11:01.665Z,47.20
2022-12-19T16:13:35.602Z,47.70
2022-12-19T16:16:13.034Z,48.60
2022-12-19T16:18:46.504Z,46.10
2022-12-19T16:21:33.241Z,49.00
2022-12-19T16:24:05.151Z,48.10
2022-12-19T16:26:36.849Z,48.80
2022-12-19T16:29:12.687Z,51.20
2022-12-19T16:31:43.182Z,49.00
2022-12-19T16:34:15.633Z,48.90
2022-12-19T16:36:46.425Z,49.40
2022-12-19T16:39:17.558Z,50.70
2022-12-19T16:41:48.392Z,47.30
2022-12-19T16:44:20.646Z,53.30
2022-12-19T16:46:51.710Z,51.10
2022-12-19T16:49:23.990Z,48.10
2022-12-19T16:51:54.500Z,52.60
2022-12-19T16:54:25.861Z,50.60
2022-12-19T16:56:56.479Z,51.40
2022-12-19T16:59:28.639Z,49.30
2022-12-19T17:02:00.405Z,50.10
2022-12-19T17:04:31.747Z,50.10
2022-12-19T17:07:02.162Z,47.80
2022-12-19T17:09:33.591Z,48.90
2022-12-19T17:12:04.088Z,48.60
2022-12-19T17:14:35.611Z,53.20
2022-12-19T17:17:06.190Z,50.80
2022-12-19T17:19:38.313Z,44.70
2022-12-19T17:22:12.116Z,47.90
2022-12-19T17:24:43.212Z,49.90
2022-12-19T17:27:14.169Z,48.30
2022-12-19T17:29:45.925Z,51.90
2022-12-19T17:32:23.461Z,48.60
2022-12-19T17:34:55.086Z,52.70
2022-12-19T17:37:25.516Z,48.60
2022-12-19T17:39:56.553Z,49.80
2022-12-19T17:42:33.646Z,48.00
2022-12-19T17:45:09.402Z,50.60
2022-12-19T17:47:40.040Z,55.70
2022-12-19T17:50:18.747Z,49.90
2022-12-19T17:52:49.968Z,52.70
2022-12-19T17:55:22.436Z,55.60
2022-12-19T17:57:53.266Z,57.20
2022-12-19T18:00:30.323Z,57.70
2022-12-19T18:03:03.004Z,55.10
2022-12-19T18:05:36.121Z,55.70
2022-12-19T18:08:08.153Z,50.00
2022-12-19T18:10:38.999Z,58.10
2022-12-19T18:13:09.470Z,59.00
2022-12-19T18:15:41.537Z,61.40
2022-12-19T18:18:13.631Z,48.60
2022-12-19T18:20:45.153Z,52.90
2022-12-19T18:23:18.542Z,54.20
2022-12-19T18:25:51.039Z,52.50
2022-12-19T18:28:23.972Z,47.50
2022-12-19T18:30:57.479Z,48.50
2022-12-19T18:35:57.587Z,50.50
2022-12-19T18:38:28.128Z,48.60
2022-12-19T18:40:59.187Z,46.70
2022-12-19T18:43:31.473Z,52.40
2022-12-19T18:46:02.228Z,51.40
2022-12-19T18:48:34.635Z,48.90
2022-12-19T18:51:06.246Z,47.90
2022-12-19T18:53:36.913Z,48.00
2022-12-19T18:56:08.037Z,42.70
2022-12-19T18:58:38.842Z,46.10
2022-12-19T19:01:12.869Z,49.60
2022-12-19T19:03:45.414Z,54.30
2022-12-19T19:06:19.179Z,47.40
2022-12-19T19:08:50.584Z,50.40
2022-12-19T19:11:45.575Z,51.80
2022-12-19T19:14:16.069Z,48.60
2022-12-19T19:16:46.804Z,51.80
2022-12-19T19:19:18.971Z,50.80
2022-12-19T19:21:50.103Z,49.80
2022-12-19T19:24:22.227Z,52.70
2022-12-19T19:26:53.061Z,46.20
2022-12-19T19:29:23.686Z,57.10
2022-12-19T19:31:54.733Z,49.40
2022-12-19T19:34:27.443Z,50.10
2022-12-19T19:36:59.364Z,46.30
2022-12-19T19:39:32.837Z,55.50
2022-12-19T19:42:05.320Z,51.10
2022-12-19T19:44:35.970Z,48.80
2022-12-19T19:47:06.872Z,48.20
2022-12-19T19:49:37.546Z,52.80
2022-12-19T19:52:08.195Z,49.00
2022-12-19T19:54:38.807Z,59.80
2022-12-19T19:57:09.857Z,57.30
2022-12-19T19:59:40.573Z,54.90
2022-12-19T20:02:12.975Z,54.90
2022-12-19T20:04:48.474Z,54.70
2022-12-19T20:07:19.609Z,55.30
2022-12-19T20:09:50.691Z,53.70
2022-12-19T20:12:21.873Z,62.30
2022-12-19T20:14:52.788Z,51.80
2022-12-19T20:17:23.707Z,52.60
2022-12-19T20:19:54.181Z,49.40
2022-12-19T20:22:25.009Z,53.90
2022-12-19T20:24:55.681Z,54.10
2022-12-19T20:27:26.633Z,54.00
2022-12-19T20:29:57.870Z,51.80
2022-12-19T20:32:30.551Z,53.90
2022-12-19T20:35:01.229Z,58.80
2022-12-19T20:37:33.047Z,54.60
2022-12-19T20:40:06.001Z,58.40
2022-12-19T20:42:37.377Z,59.10
2022-12-19T20:45:08.835Z,56.10
2022-12-19T20:47:40.071Z,53.10
2022-12-19T20:50:13.037Z,50.70
2022-12-19T20:52:44.000Z,58.40
2022-12-19T20:55:15.045Z,52.90
2022-12-19T20:57:45.977Z,57.10
2022-12-19T21:00:18.243Z,51.80
2022-12-19T21:03:25.917Z,56.00
2022-12-19T21:05:40.084Z,54.90
2022-12-19T21:08:10.944Z,55.50
2022-12-19T21:10:41.654Z,55.20
2022-12-19T21:13:12.595Z,55.90
2022-12-19T21:15:43.140Z,62.70
2022-12-19T21:18:14.220Z,56.80
2022-12-19T21:20:44.890Z,56.40
2022-12-19T21:23:15.690Z,57.10
2022-12-19T21:25:46.405Z,58.40
2022-12-19T21:28:17.399Z,56.10
2022-12-19T21:30:48.072Z,59.70
2022-12-19T21:33:18.892Z,54.40
2022-12-19T21:35:49.463Z,56.90
2022-12-19T21:38:20.252Z,57.30
2022-12-19T21:40:51.115Z,58.80
2022-12-19T21:43:21.803Z,60.90
2022-12-19T21:45:52.432Z,55.20
2022-12-19T21:48:23.325Z,58.40
2022-12-19T21:50:57.943Z,60.40
2022-12-19T21:53:28.942Z,62.60
2022-12-19T21:56:04.989Z,59.00
2022-12-19T21:58:36.158Z,57.00
2022-12-19T22:01:08.572Z,56.90
2022-12-19T22:03:40.186Z,54.00
2022-12-19T22:06:15.210Z,60.30
2022-12-19T22:08:45.841Z,58.40
2022-12-19T22:11:17.901Z,60.60
2022-12-19T22:13:49.757Z,58.20
2022-12-19T22:16:20.607Z,57.90
2022-12-19T22:18:53.104Z,56.90
2022-12-19T22:21:24.049Z,54.40
2022-12-19T22:23:58.973Z,60.40
2022-12-19T22:26:30.373Z,59.50
2022-12-19T22:29:01.219Z,60.50
2022-12-19T22:31:33.206Z,59.10
2022-12-19T22:34:04.721Z,59.70
2022-12-19T22:36:36.177Z,62.90
2022-12-19T22:39:08.177Z,63.50
2022-12-19T22:41:39.798Z,59.60
2022-12-19T22:44:15.372Z,57.70
2022-12-19T22:46:46.271Z,54.60
2022-12-19T22:49:17.772Z,56.10
2022-12-19T22:51:48.874Z,58.90
2022-12-19T22:54:19.660Z,53.30
2022-12-19T22:56:50.645Z,61.60
2022-12-19T22:59:21.549Z,57.10
2022-12-19T23:01:53.452Z,59.70
2022-12-19T23:04:24.416Z,62.20
2022-12-19T23:06:55.315Z,57.80
2022-12-19T23:09:26.266Z,58.90
2022-12-19T23:11:57.358Z,59.80
2022-12-19T23:14:28.128Z,57.60
2022-12-19T23:16:58.898Z,61.10
2022-12-19T23:19:29.713Z,57.40
2022-12-19T23:22:00.487Z,60.40
2022-12-19T23:24:31.582Z,61.50
2022-12-19T23:27:03.945Z,60.00
2022-12-19T23:29:34.582Z,60.80
2022-12-19T23:32:05.791Z,58.70
2022-12-19T23:34:37.306Z,56.40
2022-12-19T23:37:11.131Z,56.40
2022-12-19T23:39:42.529Z,60.10
2022-12-19T23:42:13.327Z,65.60
2022-12-19T23:44:44.713Z,65.40
2022-12-19T23:47:15.552Z,62.50
2022-12-19T23:49:46.020Z,67.60
2022-12-19T23:52:17.378Z,70.40
2022-12-19T23:54:47.966Z,66.70
2022-12-19T23:57:18.885Z,60.50
2022-12-19T23:59:50.125Z,62.50
